sensor_id;sensor_type;location;lat;lon;timestamp;temperature;humidity
8633;DHT22;4354;49.832;10.746;2023-02-16T00:01:51;0.10;99.90
8633;DHT22;4354;49.832;10.746;2023-02-16T00:04:21;0.10;99.90
8633;DHT22;4354;49.832;10.746;2023-02-16T00:06:48;0.00;99.90
8633;DHT22;4354;49.832;10.746;2023-02-16T00:09:16;0.10;99.90
8633;DHT22;4354;49.832;10.746;2023-02-16T00:11:43;0.00;99.90
8633;DHT22;4354;49.832;10.746;2023-02-16T00:14:29;0.10;99.90
8633;DHT22;4354;49.832;10.746;2023-02-16T00:16:57;0.00;99.90
8633;DHT22;4354;49.832;10.746;2023-02-16T00:19:26;0.00;99.90
8633;DHT22;4354;49.832;10.746;2023-02-16T00:21:55;0.00;99.90
8633;DHT22;4354;49.832;10.746;2023-02-16T00:24:23;-0.10;99.90
8633;DHT22;4354;49.832;10.746;2023-02-16T00:26:52;-0.10;99.90
8633;DHT22;4354;49.832;10.746;2023-02-16T00:29:24;-0.10;99.90
8633;DHT22;4354;49.832;10.746;2023-02-16T00:31:52;-0.10;99.90
8633;DHT22;4354;49.832;10.746;2023-02-16T00:34:27;-0.10;99.90
8633;DHT22;4354;49.832;10.746;2023-02-16T00:36:55;-0.10;99.90
8633;DHT22;4354;49.832;10.746;2023-02-16T00:39:23;-0.10;99.90
8633;DHT22;4354;49.832;10.746;2023-02-16T00:42:05;-0.10;99.90
8633;DHT22;4354;49.832;10.746;2023-02-16T00:44:35;-0.10;99.90
8633;DHT22;4354;49.832;10.746;2023-02-16T00:47:19;-0.10;99.90
8633;DHT22;4354;49.832;10.746;2023-02-16T00:49:47;-0.10;99.90
8633;DHT22;4354;49.832;10.746;2023-02-16T00:55:00;-0.20;99.90
8633;DHT22;4354;49.832;10.746;2023-02-16T00:57:30;-0.10;99.90
8633;DHT22;4354;49.832;10.746;2023-02-16T01:00:04;-0.20;99.90
8633;DHT22;4354;49.832;10.746;2023-02-16T01:02:32;-0.20;99.90
8633;DHT22;4354;49.832;10.746;2023-02-16T01:04:58;-0.30;99.90
8633;DHT22;4354;49.832;10.746;2023-02-16T01:07:25;-0.20;99.90
8633;DHT22;4354;49.832;10.746;2023-02-16T01:10:11;-0.30;99.90
8633;DHT22;4354;49.832;10.746;2023-02-16T01:12:56;-0.30;99.90
8633;DHT22;4354;49.832;10.746;2023-02-16T01:15:25;-0.30;99.90
8633;DHT22;4354;49.832;10.746;2023-02-16T01:17:51;-0.30;99.90
8633;DHT22;4354;49.832;10.746;2023-02-16T01:20:20;-0.30;99.90
8633;DHT22;4354;49.832;10.746;2023-02-16T01:22:48;-0.20;99.90
8633;DHT22;4354;49.832;10.746;2023-02-16T01:25:14;-0.30;99.90
8633;DHT22;4354;49.832;10.746;2023-02-16T01:27:41;-0.40;99.90
8633;DHT22;4354;49.832;10.746;2023-02-16T01:30:23;-0.40;99.90
8633;DHT22;4354;49.832;10.746;2023-02-16T01:32:51;-0.40;99.90
8633;DHT22;4354;49.832;10.746;2023-02-16T01:35:23;-0.40;99.90
8633;DHT22;4354;49.832;10.746;2023-02-16T01:37:50;-0.40;99.90
8633;DHT22;4354;49.832;10.746;2023-02-16T01:40:29;-0.40;99.90
8633;DHT22;4354;49.832;10.746;2023-02-16T01:45:49;-0.40;99.90
8633;DHT22;4354;49.832;10.746;2023-02-16T01:48:28;-0.40;99.90
8633;DHT22;4354;49.832;10.746;2023-02-16T01:53:45;-0.40;99.90
8633;DHT22;4354;49.832;10.746;2023-02-16T01:58:55;-0.50;99.90
8633;DHT22;4354;49.832;10.746;2023-02-16T02:01:52;-0.40;99.90
8633;DHT22;4354;49.832;10.746;2023-02-16T02:04:39;-0.40;99.90
8633;DHT22;4354;49.832;10.746;2023-02-16T02:07:33;-0.50;99.90
8633;DHT22;4354;49.832;10.746;2023-02-16T02:11:03;-0.40;99.90
8633;DHT22;4354;49.832;10.746;2023-02-16T02:13:25;-0.40;99.90
8633;DHT22;4354;49.832;10.746;2023-02-16T02:15:54;-0.40;99.90
8633;DHT22;4354;49.832;10.746;2023-02-16T02:18:22;-0.50;99.90
8633;DHT22;4354;49.832;10.746;2023-02-16T02:29:24;-0.50;99.90
8633;DHT22;4354;49.832;10.746;2023-02-16T02:45:07;-0.60;99.90
8633;DHT22;4354;49.832;10.746;2023-02-16T02:47:43;-0.60;99.90
8633;DHT22;4354;49.832;10.746;2023-02-16T02:53:36;-0.60;99.90
8633;DHT22;4354;49.832;10.746;2023-02-16T02:56:06;-0.70;99.90
8633;DHT22;4354;49.832;10.746;2023-02-16T02:58:56;-0.60;99.90
8633;DHT22;4354;49.832;10.746;2023-02-16T03:01:49;-0.70;99.90
8633;DHT22;4354;49.832;10.746;2023-02-16T03:04:20;-0.70;99.90
8633;DHT22;4354;49.832;10.746;2023-02-16T03:06:52;-0.70;99.90
8633;DHT22;4354;49.832;10.746;2023-02-16T03:09:19;-0.70;99.90
8633;DHT22;4354;49.832;10.746;2023-02-16T03:11:48;-0.70;99.90
8633;DHT22;4354;49.832;10.746;2023-02-16T03:17:10;-0.70;99.90
8633;DHT22;4354;49.832;10.746;2023-02-16T03:19:55;-0.70;99.90
8633;DHT22;4354;49.832;10.746;2023-02-16T03:22:42;-0.70;99.90
8633;DHT22;4354;49.832;10.746;2023-02-16T03:25:31;-0.70;99.90
8633;DHT22;4354;49.832;10.746;2023-02-16T03:28:20;-0.70;99.90
8633;DHT22;4354;49.832;10.746;2023-02-16T03:31:08;-0.70;99.90
8633;DHT22;4354;49.832;10.746;2023-02-16T03:33:36;-0.80;99.90
8633;DHT22;4354;49.832;10.746;2023-02-16T03:36:04;-0.70;99.90
8633;DHT22;4354;49.832;10.746;2023-02-16T03:38:31;-0.80;99.90
8633;DHT22;4354;49.832;10.746;2023-02-16T03:40:58;-0.70;99.90
8633;DHT22;4354;49.832;10.746;2023-02-16T03:43:26;-0.70;99.90
8633;DHT22;4354;49.832;10.746;2023-02-16T03:45:54;-0.70;99.90
8633;DHT22;4354;49.832;10.746;2023-02-16T03:48:21;-0.70;99.90
8633;DHT22;4354;49.832;10.746;2023-02-16T03:50:48;-0.70;99.90
8633;DHT22;4354;49.832;10.746;2023-02-16T03:53:15;-0.70;99.90
8633;DHT22;4354;49.832;10.746;2023-02-16T03:55:46;-0.90;99.90
8633;DHT22;4354;49.832;10.746;2023-02-16T03:58:16;-0.80;99.90
8633;DHT22;4354;49.832;10.746;2023-02-16T04:00:44;-0.70;99.90
8633;DHT22;4354;49.832;10.746;2023-02-16T04:03:11;-0.70;99.90
8633;DHT22;4354;49.832;10.746;2023-02-16T04:05:38;-0.70;99.90
8633;DHT22;4354;49.832;10.746;2023-02-16T04:08:06;-0.70;99.90
8633;DHT22;4354;49.832;10.746;2023-02-16T04:10:33;-0.70;99.90
8633;DHT22;4354;49.832;10.746;2023-02-16T04:13:00;-0.70;99.90
8633;DHT22;4354;49.832;10.746;2023-02-16T04:15:28;-0.70;99.90
8633;DHT22;4354;49.832;10.746;2023-02-16T04:17:54;-0.70;99.90
8633;DHT22;4354;49.832;10.746;2023-02-16T04:20:25;-0.70;99.90
8633;DHT22;4354;49.832;10.746;2023-02-16T04:22:52;-0.60;99.90
8633;DHT22;4354;49.832;10.746;2023-02-16T04:25:20;-0.70;99.90
8633;DHT22;4354;49.832;10.746;2023-02-16T04:27:47;-0.60;99.90
8633;DHT22;4354;49.832;10.746;2023-02-16T04:30:17;-0.70;99.90
8633;DHT22;4354;49.832;10.746;2023-02-16T04:32:44;-0.60;99.90
8633;DHT22;4354;49.832;10.746;2023-02-16T04:35:12;-0.60;99.90
8633;DHT22;4354;49.832;10.746;2023-02-16T04:37:38;-0.60;99.90
8633;DHT22;4354;49.832;10.746;2023-02-16T04:40:07;-0.70;99.90
8633;DHT22;4354;49.832;10.746;2023-02-16T04:42:34;-0.70;99.90
8633;DHT22;4354;49.832;10.746;2023-02-16T04:45:00;-0.70;99.90
8633;DHT22;4354;49.832;10.746;2023-02-16T04:47:27;-0.70;99.90
8633;DHT22;4354;49.832;10.746;2023-02-16T04:49:54;-0.70;99.90
8633;DHT22;4354;49.832;10.746;2023-02-16T04:52:21;-0.70;99.90
8633;DHT22;4354;49.832;10.746;2023-02-16T04:54:47;-0.70;99.90
8633;DHT22;4354;49.832;10.746;2023-02-16T04:57:15;-0.50;99.90
8633;DHT22;4354;49.832;10.746;2023-02-16T04:59:42;-0.80;99.90
8633;DHT22;4354;49.832;10.746;2023-02-16T05:02:09;-0.80;99.90
8633;DHT22;4354;49.832;10.746;2023-02-16T05:04:37;-0.80;99.90
8633;DHT22;4354;49.832;10.746;2023-02-16T05:07:04;-0.80;99.90
8633;DHT22;4354;49.832;10.746;2023-02-16T05:09:31;-0.80;99.90
8633;DHT22;4354;49.832;10.746;2023-02-16T05:11:57;-0.80;99.90
8633;DHT22;4354;49.832;10.746;2023-02-16T05:14:43;-0.80;99.90
8633;DHT22;4354;49.832;10.746;2023-02-16T05:17:16;-0.90;99.90
8633;DHT22;4354;49.832;10.746;2023-02-16T05:19:44;-0.90;99.90
8633;DHT22;4354;49.832;10.746;2023-02-16T05:22:13;-0.90;99.90
8633;DHT22;4354;49.832;10.746;2023-02-16T05:24:40;-0.90;99.90
8633;DHT22;4354;49.832;10.746;2023-02-16T05:27:11;-0.90;99.90
8633;DHT22;4354;49.832;10.746;2023-02-16T05:29:38;-0.90;99.90
8633;DHT22;4354;49.832;10.746;2023-02-16T05:32:05;-0.90;99.90
8633;DHT22;4354;49.832;10.746;2023-02-16T05:34:32;-0.90;99.90
8633;DHT22;4354;49.832;10.746;2023-02-16T05:36:59;-0.90;99.90
8633;DHT22;4354;49.832;10.746;2023-02-16T05:39:25;-1.00;99.90
8633;DHT22;4354;49.832;10.746;2023-02-16T05:41:52;-1.00;99.90
8633;DHT22;4354;49.832;10.746;2023-02-16T05:44:20;-0.90;99.90
8633;DHT22;4354;49.832;10.746;2023-02-16T05:46:47;-0.90;99.90
8633;DHT22;4354;49.832;10.746;2023-02-16T05:49:14;-0.90;99.90
8633;DHT22;4354;49.832;10.746;2023-02-16T05:51:42;-1.00;99.90
8633;DHT22;4354;49.832;10.746;2023-02-16T05:54:09;-1.00;99.90
8633;DHT22;4354;49.832;10.746;2023-02-16T05:56:36;-1.00;99.90
8633;DHT22;4354;49.832;10.746;2023-02-16T05:59:03;-0.90;99.90
8633;DHT22;4354;49.832;10.746;2023-02-16T06:01:29;-1.00;99.90
8633;DHT22;4354;49.832;10.746;2023-02-16T06:03:56;-1.00;99.90
8633;DHT22;4354;49.832;10.746;2023-02-16T06:06:23;-1.00;99.90
8633;DHT22;4354;49.832;10.746;2023-02-16T06:08:50;-1.00;99.90
8633;DHT22;4354;49.832;10.746;2023-02-16T06:11:16;-1.10;99.90
8633;DHT22;4354;49.832;10.746;2023-02-16T06:14:09;-1.20;99.90
8633;DHT22;4354;49.832;10.746;2023-02-16T06:16:37;-1.10;99.90
8633;DHT22;4354;49.832;10.746;2023-02-16T06:19:04;-1.20;99.90
8633;DHT22;4354;49.832;10.746;2023-02-16T06:21:32;-1.20;99.90
8633;DHT22;4354;49.832;10.746;2023-02-16T06:23:59;-1.20;99.90
8633;DHT22;4354;49.832;10.746;2023-02-16T06:26:26;-1.20;99.90
8633;DHT22;4354;49.832;10.746;2023-02-16T06:28:55;-1.20;99.90
8633;DHT22;4354;49.832;10.746;2023-02-16T06:31:22;-1.30;99.90
8633;DHT22;4354;49.832;10.746;2023-02-16T06:33:51;-1.30;99.90
8633;DHT22;4354;49.832;10.746;2023-02-16T06:36:18;-1.30;99.90
8633;DHT22;4354;49.832;10.746;2023-02-16T06:38:45;-1.30;99.90
8633;DHT22;4354;49.832;10.746;2023-02-16T06:41:12;-1.30;99.90
8633;DHT22;4354;49.832;10.746;2023-02-16T06:43:38;-1.20;99.90
8633;DHT22;4354;49.832;10.746;2023-02-16T06:46:05;-1.20;99.90
8633;DHT22;4354;49.832;10.746;2023-02-16T06:48:32;-1.10;99.90
8633;DHT22;4354;49.832;10.746;2023-02-16T06:50:59;-1.10;99.90
8633;DHT22;4354;49.832;10.746;2023-02-16T06:53:26;-1.10;99.90
8633;DHT22;4354;49.832;10.746;2023-02-16T06:55:52;-1.10;99.90
8633;DHT22;4354;49.832;10.746;2023-02-16T06:58:19;-1.10;99.90
8633;DHT22;4354;49.832;10.746;2023-02-16T07:00:46;-1.10;99.90
8633;DHT22;4354;49.832;10.746;2023-02-16T07:03:13;-1.10;99.90
8633;DHT22;4354;49.832;10.746;2023-02-16T07:05:40;-1.10;99.90
8633;DHT22;4354;49.832;10.746;2023-02-16T07:08:09;-1.10;99.90
8633;DHT22;4354;49.832;10.746;2023-02-16T07:10:36;-1.10;99.90
8633;DHT22;4354;49.832;10.746;2023-02-16T07:13:15;-1.10;99.90
8633;DHT22;4354;49.832;10.746;2023-02-16T07:15:42;-1.00;99.90
8633;DHT22;4354;49.832;10.746;2023-02-16T07:18:08;-1.00;99.90
8633;DHT22;4354;49.832;10.746;2023-02-16T07:20:37;-1.00;99.90
8633;DHT22;4354;49.832;10.746;2023-02-16T07:23:04;-0.90;99.90
8633;DHT22;4354;49.832;10.746;2023-02-16T07:25:32;-0.90;99.90
8633;DHT22;4354;49.832;10.746;2023-02-16T07:28:02;-0.90;99.90
8633;DHT22;4354;49.832;10.746;2023-02-16T07:30:28;-1.00;99.90
8633;DHT22;4354;49.832;10.746;2023-02-16T07:32:55;-1.00;99.90
8633;DHT22;4354;49.832;10.746;2023-02-16T07:35:25;-1.00;99.90
8633;DHT22;4354;49.832;10.746;2023-02-16T07:37:52;-0.90;99.90
8633;DHT22;4354;49.832;10.746;2023-02-16T07:40:19;-0.90;99.90
8633;DHT22;4354;49.832;10.746;2023-02-16T07:42:46;-1.00;99.90
8633;DHT22;4354;49.832;10.746;2023-02-16T07:45:13;-1.00;99.90
8633;DHT22;4354;49.832;10.746;2023-02-16T07:47:39;-0.90;99.90
8633;DHT22;4354;49.832;10.746;2023-02-16T07:50:07;-0.90;99.90
8633;DHT22;4354;49.832;10.746;2023-02-16T07:52:34;-0.80;99.90
8633;DHT22;4354;49.832;10.746;2023-02-16T07:55:01;-0.70;99.90
8633;DHT22;4354;49.832;10.746;2023-02-16T07:57:28;-0.60;99.90
8633;DHT22;4354;49.832;10.746;2023-02-16T07:59:55;-0.50;99.90
8633;DHT22;4354;49.832;10.746;2023-02-16T08:02:22;-0.50;99.90
8633;DHT22;4354;49.832;10.746;2023-02-16T08:04:49;-0.50;99.90
8633;DHT22;4354;49.832;10.746;2023-02-16T08:07:19;-0.40;99.90
8633;DHT22;4354;49.832;10.746;2023-02-16T08:09:46;-0.40;99.90
8633;DHT22;4354;49.832;10.746;2023-02-16T08:12:14;-0.40;99.90
8633;DHT22;4354;49.832;10.746;2023-02-16T08:14:41;-0.30;99.90
8633;DHT22;4354;49.832;10.746;2023-02-16T08:17:09;-0.30;99.90
8633;DHT22;4354;49.832;10.746;2023-02-16T08:19:35;-0.20;99.90
8633;DHT22;4354;49.832;10.746;2023-02-16T08:22:03;-0.20;99.90
8633;DHT22;4354;49.832;10.746;2023-02-16T08:24:31;-0.30;99.90
8633;DHT22;4354;49.832;10.746;2023-02-16T08:27:01;-0.30;99.90
8633;DHT22;4354;49.832;10.746;2023-02-16T08:29:30;-0.20;99.90
8633;DHT22;4354;49.832;10.746;2023-02-16T08:31:57;-0.10;99.90
8633;DHT22;4354;49.832;10.746;2023-02-16T08:34:24;0.00;99.90
8633;DHT22;4354;49.832;10.746;2023-02-16T08:36:54;0.00;99.90
8633;DHT22;4354;49.832;10.746;2023-02-16T08:39:27;0.10;99.90
8633;DHT22;4354;49.832;10.746;2023-02-16T08:41:54;0.10;99.90
8633;DHT22;4354;49.832;10.746;2023-02-16T08:44:23;0.20;99.90
8633;DHT22;4354;49.832;10.746;2023-02-16T08:46:53;0.30;99.90
8633;DHT22;4354;49.832;10.746;2023-02-16T08:49:21;0.30;99.90
8633;DHT22;4354;49.832;10.746;2023-02-16T08:51:52;0.40;99.90
8633;DHT22;4354;49.832;10.746;2023-02-16T08:54:23;0.40;99.90
8633;DHT22;4354;49.832;10.746;2023-02-16T08:56:53;0.50;99.90
8633;DHT22;4354;49.832;10.746;2023-02-16T08:59:22;0.50;99.90
8633;DHT22;4354;49.832;10.746;2023-02-16T09:01:53;0.50;99.90
8633;DHT22;4354;49.832;10.746;2023-02-16T09:04:20;0.60;99.90
8633;DHT22;4354;49.832;10.746;2023-02-16T09:06:47;0.70;99.90
8633;DHT22;4354;49.832;10.746;2023-02-16T09:09:14;0.80;99.90
8633;DHT22;4354;49.832;10.746;2023-02-16T09:11:42;0.90;99.90
8633;DHT22;4354;49.832;10.746;2023-02-16T09:14:09;1.00;99.90
8633;DHT22;4354;49.832;10.746;2023-02-16T09:16:37;1.00;99.90
8633;DHT22;4354;49.832;10.746;2023-02-16T09:19:05;1.10;99.90
8633;DHT22;4354;49.832;10.746;2023-02-16T09:21:32;1.30;99.90
8633;DHT22;4354;49.832;10.746;2023-02-16T09:24:02;1.30;99.90
8633;DHT22;4354;49.832;10.746;2023-02-16T09:26:34;1.30;99.90
8633;DHT22;4354;49.832;10.746;2023-02-16T09:29:04;1.30;99.90
8633;DHT22;4354;49.832;10.746;2023-02-16T09:31:34;1.40;99.90
8633;DHT22;4354;49.832;10.746;2023-02-16T09:34:18;1.40;99.90
8633;DHT22;4354;49.832;10.746;2023-02-16T09:36:46;1.40;99.90
8633;DHT22;4354;49.832;10.746;2023-02-16T09:39:13;1.30;99.90
8633;DHT22;4354;49.832;10.746;2023-02-16T09:46:56;1.20;99.90
8633;DHT22;4354;49.832;10.746;2023-02-16T09:49:32;1.30;99.90
8633;DHT22;4354;49.832;10.746;2023-02-16T09:52:16;1.20;99.90
8633;DHT22;4354;49.832;10.746;2023-02-16T09:54:54;1.20;99.90
8633;DHT22;4354;49.832;10.746;2023-02-16T09:57:44;1.10;99.90
8633;DHT22;4354;49.832;10.746;2023-02-16T10:00:46;1.20;99.90
8633;DHT22;4354;49.832;10.746;2023-02-16T10:07:11;1.40;99.90
8633;DHT22;4354;49.832;10.746;2023-02-16T10:09:18;1.40;99.90
8633;DHT22;4354;49.832;10.746;2023-02-16T10:14:39;1.60;99.90
8633;DHT22;4354;49.832;10.746;2023-02-16T10:17:27;1.60;99.90
8633;DHT22;4354;49.832;10.746;2023-02-16T10:23:23;1.90;99.90
8633;DHT22;4354;49.832;10.746;2023-02-16T10:25:58;2.10;99.90
8633;DHT22;4354;49.832;10.746;2023-02-16T10:28:37;2.30;99.90
8633;DHT22;4354;49.832;10.746;2023-02-16T10:31:18;2.40;99.90
8633;DHT22;4354;49.832;10.746;2023-02-16T10:48:03;3.20;99.90
8633;DHT22;4354;49.832;10.746;2023-02-16T10:50:45;3.20;99.90
8633;DHT22;4354;49.832;10.746;2023-02-16T10:53:32;3.10;99.90
8633;DHT22;4354;49.832;10.746;2023-02-16T10:56:00;3.10;99.90
8633;DHT22;4354;49.832;10.746;2023-02-16T10:58:36;3.00;99.90
8633;DHT22;4354;49.832;10.746;2023-02-16T11:01:14;3.10;99.90
8633;DHT22;4354;49.832;10.746;2023-02-16T11:03:47;3.10;99.90
8633;DHT22;4354;49.832;10.746;2023-02-16T11:06:24;2.90;99.90
8633;DHT22;4354;49.832;10.746;2023-02-16T11:08:54;2.90;99.90
8633;DHT22;4354;49.832;10.746;2023-02-16T11:11:37;2.90;99.90
8633;DHT22;4354;49.832;10.746;2023-02-16T11:14:06;3.00;99.90
8633;DHT22;4354;49.832;10.746;2023-02-16T11:16:34;3.10;99.90
8633;DHT22;4354;49.832;10.746;2023-02-16T11:19:22;3.20;99.90
8633;DHT22;4354;49.832;10.746;2023-02-16T11:21:54;3.20;99.90
8633;DHT22;4354;49.832;10.746;2023-02-16T11:24:30;3.20;99.90
8633;DHT22;4354;49.832;10.746;2023-02-16T11:29:40;3.60;99.90
8633;DHT22;4354;49.832;10.746;2023-02-16T11:32:08;3.70;99.90
8633;DHT22;4354;49.832;10.746;2023-02-16T11:34:42;3.90;99.90
8633;DHT22;4354;49.832;10.746;2023-02-16T11:37:32;4.00;99.90
8633;DHT22;4354;49.832;10.746;2023-02-16T11:42:49;4.50;99.90
8633;DHT22;4354;49.832;10.746;2023-02-16T11:45:35;4.70;99.90
8633;DHT22;4354;49.832;10.746;2023-02-16T11:48:06;4.90;99.90
8633;DHT22;4354;49.832;10.746;2023-02-16T11:50:36;5.00;99.90
8633;DHT22;4354;49.832;10.746;2023-02-16T11:55:45;5.00;99.90
8633;DHT22;4354;49.832;10.746;2023-02-16T12:03:47;5.70;99.90
8633;DHT22;4354;49.832;10.746;2023-02-16T12:19:45;9.30;99.90
8633;DHT22;4354;49.832;10.746;2023-02-16T12:22:33;10.40;99.90
8633;DHT22;4354;49.832;10.746;2023-02-16T12:28:15;10.90;99.90
8633;DHT22;4354;49.832;10.746;2023-02-16T12:39:19;11.10;99.90
8633;DHT22;4354;49.832;10.746;2023-02-16T12:44:28;10.30;99.90
8633;DHT22;4354;49.832;10.746;2023-02-16T12:47:02;10.10;99.90
8633;DHT22;4354;49.832;10.746;2023-02-16T12:49:40;9.70;99.90
8633;DHT22;4354;49.832;10.746;2023-02-16T12:54:48;9.60;99.90
8633;DHT22;4354;49.832;10.746;2023-02-16T12:57:20;9.40;99.90
8633;DHT22;4354;49.832;10.746;2023-02-16T13:00:36;9.20;
8633;DHT22;4354;49.832;10.746;2023-02-16T13:02:39;9.20;99.90
8633;DHT22;4354;49.832;10.746;2023-02-16T13:05:13;9.00;99.90
8633;DHT22;4354;49.832;10.746;2023-02-16T13:07:48;9.20;99.90
8633;DHT22;4354;49.832;10.746;2023-02-16T13:10:29;9.20;99.90
8633;DHT22;4354;49.832;10.746;2023-02-16T13:13:07;9.10;99.90
8633;DHT22;4354;49.832;10.746;2023-02-16T13:15:39;9.20;99.90
8633;DHT22;4354;49.832;10.746;2023-02-16T13:18:21;9.20;99.90
8633;DHT22;4354;49.832;10.746;2023-02-16T13:21:03;9.20;99.90
8633;DHT22;4354;49.832;10.746;2023-02-16T13:23:51;8.90;99.90
8633;DHT22;4354;49.832;10.746;2023-02-16T13:26:39;8.80;99.90
8633;DHT22;4354;49.832;10.746;2023-02-16T13:29:20;8.90;99.90
8633;DHT22;4354;49.832;10.746;2023-02-16T13:35:00;8.30;99.90
8633;DHT22;4354;49.832;10.746;2023-02-16T13:45:43;8.20;99.90
8633;DHT22;4354;49.832;10.746;2023-02-16T13:51:13;8.20;99.90
8633;DHT22;4354;49.832;10.746;2023-02-16T13:53:42;8.20;99.90
8633;DHT22;4354;49.832;10.746;2023-02-16T13:56:30;8.20;99.90
8633;DHT22;4354;49.832;10.746;2023-02-16T13:59:43;8.20;99.90
8633;DHT22;4354;49.832;10.746;2023-02-16T14:01:49;8.30;99.90
8633;DHT22;4354;49.832;10.746;2023-02-16T14:12:27;8.50;99.90
8633;DHT22;4354;49.832;10.746;2023-02-16T14:14:58;8.60;99.90
8633;DHT22;4354;49.832;10.746;2023-02-16T14:17:28;8.60;99.90
8633;DHT22;4354;49.832;10.746;2023-02-16T14:27:57;8.90;99.90
8633;DHT22;4354;49.832;10.746;2023-02-16T14:35:40;9.00;99.90
8633;DHT22;4354;49.832;10.746;2023-02-16T14:38:22;8.90;99.90
8633;DHT22;4354;49.832;10.746;2023-02-16T14:40:53;8.90;99.90
8633;DHT22;4354;49.832;10.746;2023-02-16T14:55:09;8.20;99.90
8633;DHT22;4354;49.832;10.746;2023-02-16T14:58:33;8.10;99.90
8633;DHT22;4354;49.832;10.746;2023-02-16T15:01:02;8.00;99.90
8633;DHT22;4354;49.832;10.746;2023-02-16T15:03:45;7.90;99.90
8633;DHT22;4354;49.832;10.746;2023-02-16T15:06:29;7.90;99.90
8633;DHT22;4354;49.832;10.746;2023-02-16T15:09:04;7.80;99.90
8633;DHT22;4354;49.832;10.746;2023-02-16T15:11:35;7.70;99.90
8633;DHT22;4354;49.832;10.746;2023-02-16T15:14:24;7.60;99.90
8633;DHT22;4354;49.832;10.746;2023-02-16T15:16:51;7.50;99.90
8633;DHT22;4354;49.832;10.746;2023-02-16T15:19:26;7.50;99.90
8633;DHT22;4354;49.832;10.746;2023-02-16T15:22:16;7.40;99.90
8633;DHT22;4354;49.832;10.746;2023-02-16T15:24:57;7.50;99.90
8633;DHT22;4354;49.832;10.746;2023-02-16T15:27:24;7.50;99.90
8633;DHT22;4354;49.832;10.746;2023-02-16T15:30:22;7.50;99.90
8633;DHT22;4354;49.832;10.746;2023-02-16T15:32:52;7.50;99.90
8633;DHT22;4354;49.832;10.746;2023-02-16T15:35:24;7.40;99.90
8633;DHT22;4354;49.832;10.746;2023-02-16T15:38:00;7.30;99.90
8633;DHT22;4354;49.832;10.746;2023-02-16T15:40:27;7.20;99.90
8633;DHT22;4354;49.832;10.746;2023-02-16T15:43:07;7.10;99.90
8633;DHT22;4354;49.832;10.746;2023-02-16T15:45:36;7.00;99.90
8633;DHT22;4354;49.832;10.746;2023-02-16T15:48:14;6.90;99.90
8633;DHT22;4354;49.832;10.746;2023-02-16T15:50:42;6.80;99.90
8633;DHT22;4354;49.832;10.746;2023-02-16T15:53:13;6.70;99.90
8633;DHT22;4354;49.832;10.746;2023-02-16T15:55:42;6.60;99.90
8633;DHT22;4354;49.832;10.746;2023-02-16T15:58:10;6.60;99.90
8633;DHT22;4354;49.832;10.746;2023-02-16T16:00:42;6.50;99.90
8633;DHT22;4354;49.832;10.746;2023-02-16T16:03:17;6.50;99.90
8633;DHT22;4354;49.832;10.746;2023-02-16T16:05:59;6.10;99.90
8633;DHT22;4354;49.832;10.746;2023-02-16T16:08:27;6.30;99.90
8633;DHT22;4354;49.832;10.746;2023-02-16T16:10:56;6.20;99.90
8633;DHT22;4354;49.832;10.746;2023-02-16T16:13:26;6.10;99.90
8633;DHT22;4354;49.832;10.746;2023-02-16T16:15:56;6.00;99.90
8633;DHT22;4354;49.832;10.746;2023-02-16T16:21:31;5.80;99.90
8633;DHT22;4354;49.832;10.746;2023-02-16T16:24:07;5.70;99.90
8633;DHT22;4354;49.832;10.746;2023-02-16T16:26:53;5.60;99.90
8633;DHT22;4354;49.832;10.746;2023-02-16T16:29:30;5.50;99.90
8633;DHT22;4354;49.832;10.746;2023-02-16T16:31:57;5.40;99.90
8633;DHT22;4354;49.832;10.746;2023-02-16T16:34:50;5.30;99.90
8633;DHT22;4354;49.832;10.746;2023-02-16T16:37:30;5.30;99.90
8633;DHT22;4354;49.832;10.746;2023-02-16T16:40:18;5.20;99.90
8633;DHT22;4354;49.832;10.746;2023-02-16T16:43:15;5.10;99.90
8633;DHT22;4354;49.832;10.746;2023-02-16T16:45:48;5.00;99.90
8633;DHT22;4354;49.832;10.746;2023-02-16T16:48:24;5.00;99.90
8633;DHT22;4354;49.832;10.746;2023-02-16T16:56:16;4.90;99.90
8633;DHT22;4354;49.832;10.746;2023-02-16T16:58:48;4.90;99.90
8633;DHT22;4354;49.832;10.746;2023-02-16T17:01:18;4.80;99.90
8633;DHT22;4354;49.832;10.746;2023-02-16T17:03:45;4.80;99.90
8633;DHT22;4354;49.832;10.746;2023-02-16T17:06:12;4.80;99.90
8633;DHT22;4354;49.832;10.746;2023-02-16T17:08:43;4.80;99.90
8633;DHT22;4354;49.832;10.746;2023-02-16T17:11:19;4.80;99.90
8633;DHT22;4354;49.832;10.746;2023-02-16T17:13:46;4.80;99.90
8633;DHT22;4354;49.832;10.746;2023-02-16T17:16:18;4.70;99.90
8633;DHT22;4354;49.832;10.746;2023-02-16T17:18:46;4.70;99.90
8633;DHT22;4354;49.832;10.746;2023-02-16T17:21:13;4.60;99.90
8633;DHT22;4354;49.832;10.746;2023-02-16T17:23:40;4.60;99.90
8633;DHT22;4354;49.832;10.746;2023-02-16T17:26:18;4.60;99.90
8633;DHT22;4354;49.832;10.746;2023-02-16T17:28:44;4.60;99.90
8633;DHT22;4354;49.832;10.746;2023-02-16T17:31:11;4.60;99.90
8633;DHT22;4354;49.832;10.746;2023-02-16T17:33:38;4.60;99.90
8633;DHT22;4354;49.832;10.746;2023-02-16T17:36:06;4.60;99.90
8633;DHT22;4354;49.832;10.746;2023-02-16T17:38:33;4.60;99.90
8633;DHT22;4354;49.832;10.746;2023-02-16T17:41:00;4.60;99.90
8633;DHT22;4354;49.832;10.746;2023-02-16T17:43:27;4.60;99.90
8633;DHT22;4354;49.832;10.746;2023-02-16T17:45:55;4.60;99.90
8633;DHT22;4354;49.832;10.746;2023-02-16T17:48:25;4.60;99.90
8633;DHT22;4354;49.832;10.746;2023-02-16T17:50:54;4.60;99.90
8633;DHT22;4354;49.832;10.746;2023-02-16T17:53:23;4.60;99.90
8633;DHT22;4354;49.832;10.746;2023-02-16T17:55:52;4.60;99.90
8633;DHT22;4354;49.832;10.746;2023-02-16T17:58:21;4.60;99.90
8633;DHT22;4354;49.832;10.746;2023-02-16T18:00:48;4.60;99.90
8633;DHT22;4354;49.832;10.746;2023-02-16T18:03:15;4.50;99.90
8633;DHT22;4354;49.832;10.746;2023-02-16T18:05:43;4.50;99.90
8633;DHT22;4354;49.832;10.746;2023-02-16T18:08:11;4.50;99.90
8633;DHT22;4354;49.832;10.746;2023-02-16T18:10:45;4.50;99.90
8633;DHT22;4354;49.832;10.746;2023-02-16T18:13:13;4.50;99.90
8633;DHT22;4354;49.832;10.746;2023-02-16T18:15:43;4.40;99.90
8633;DHT22;4354;49.832;10.746;2023-02-16T18:18:17;4.40;99.90
8633;DHT22;4354;49.832;10.746;2023-02-16T18:20:44;4.40;99.90
8633;DHT22;4354;49.832;10.746;2023-02-16T18:23:11;4.40;99.90
8633;DHT22;4354;49.832;10.746;2023-02-16T18:25:38;4.40;99.90
8633;DHT22;4354;49.832;10.746;2023-02-16T18:28:07;4.40;99.90
8633;DHT22;4354;49.832;10.746;2023-02-16T18:30:34;4.30;99.90
8633;DHT22;4354;49.832;10.746;2023-02-16T18:33:01;4.40;99.90
8633;DHT22;4354;49.832;10.746;2023-02-16T18:35:28;4.30;99.90
8633;DHT22;4354;49.832;10.746;2023-02-16T18:37:57;4.30;99.90
8633;DHT22;4354;49.832;10.746;2023-02-16T18:40:24;4.30;99.90
8633;DHT22;4354;49.832;10.746;2023-02-16T18:42:51;4.30;99.90
8633;DHT22;4354;49.832;10.746;2023-02-16T18:45:18;4.30;99.90
8633;DHT22;4354;49.832;10.746;2023-02-16T18:47:44;4.30;99.90
8633;DHT22;4354;49.832;10.746;2023-02-16T18:50:12;4.30;99.90
8633;DHT22;4354;49.832;10.746;2023-02-16T18:52:39;4.30;99.90
8633;DHT22;4354;49.832;10.746;2023-02-16T18:55:09;4.40;99.90
8633;DHT22;4354;49.832;10.746;2023-02-16T18:57:35;4.30;99.90
8633;DHT22;4354;49.832;10.746;2023-02-16T19:00:06;4.30;99.90
8633;DHT22;4354;49.832;10.746;2023-02-16T19:02:34;4.30;99.90
8633;DHT22;4354;49.832;10.746;2023-02-16T19:05:01;4.30;99.90
8633;DHT22;4354;49.832;10.746;2023-02-16T19:07:30;4.30;99.90
8633;DHT22;4354;49.832;10.746;2023-02-16T19:09:57;4.30;99.90
8633;DHT22;4354;49.832;10.746;2023-02-16T19:12:24;4.30;99.90